Time;durP1;ratioP1;P1;durP2;ratioP2;P2;SDS_P1;SDS_P2;PMS_P1;PMS_P2;Temp;Humidity;BMP_temperature;BMP_pressure;BME280_temperature;BME280_humidity;BME280_pressure;Samples;Min_cycle;Max_cycle;Signal;HPM_P1;HPM_P2
2021/12/21 00:01:55;;;;;;;47.67;18.58;;;;;;;;;;4958119;28;20023;-67
2021/12/21 00:04:23;;;;;;;46.63;17.27;;;;;;;;;;4958091;28;20058;-67
2021/12/21 00:06:50;;;;;;;41.25;18.13;;;;;;;;;;4957027;28;20029;-67
2021/12/21 00:09:22;;;;;;;39.00;18.00;;;;;;;;;;4958069;28;20026;-67
2021/12/21 00:11:50;;;;;;;48.38;18.88;;;;;;;;;;4956912;28;20030;-67
2021/12/21 00:14:35;;;;;;;43.63;18.83;;;;;;;;;;4957930;28;20023;-67
2021/12/21 00:17:41;;;;;;;43.15;18.50;;;;;;;;;;4957843;28;20019;-68
2021/12/21 00:20:24;;;;;;;45.10;18.73;;;;;;;;;;4957824;28;20434;-68
2021/12/21 00:25:21;;;;;;;33.60;14.73;;;;;;;;;;4957866;28;20239;-68
2021/12/21 00:27:52;;;;;;;31.85;12.73;;;;;;;;;;4957884;28;20032;-68
2021/12/21 00:30:22;;;;;;;27.10;10.57;;;;;;;;;;4957764;28;20050;-68
2021/12/21 00:32:50;;;;;;;31.80;10.63;;;;;;;;;;4957680;28;20087;-67
2021/12/21 00:35:17;;;;;;;23.95;11.48;;;;;;;;;;4957807;28;20103;-68
2021/12/21 00:37:47;;;;;;;30.27;11.15;;;;;;;;;;4957736;28;20031;-68
2021/12/21 00:40:14;;;;;;;26.90;11.35;;;;;;;;;;4957682;28;20078;-68
2021/12/21 00:42:45;;;;;;;30.35;11.48;;;;;;;;;;4957563;28;20027;-68
2021/12/21 00:45:15;;;;;;;29.42;12.25;;;;;;;;;;4957920;28;20349;-68
2021/12/21 00:47:47;;;;;;;36.95;14.07;;;;;;;;;;4957542;28;20094;-68
2021/12/21 00:50:17;;;;;;;36.00;15.77;;;;;;;;;;4956601;28;20027;-68
2021/12/21 00:52:46;;;;;;;37.85;15.65;;;;;;;;;;4959721;28;20027;-68
2021/12/21 00:55:13;;;;;;;43.22;19.50;;;;;;;;;;4960418;28;20034;-68
2021/12/21 00:57:41;;;;;;;51.38;20.88;;;;;;;;;;4961356;28;20023;-68
2021/12/21 01:00:10;;;;;;;63.03;25.45;;;;;;;;;;4961371;28;20031;-68
2021/12/21 01:02:38;;;;;;;71.57;30.58;;;;;;;;;;4961310;28;20321;-68
2021/12/21 01:05:13;;;;;;;125.82;43.17;;;;;;;;;;4960296;28;20024;-68
2021/12/21 01:07:44;;;;;;;139.88;49.25;;;;;;;;;;4960261;28;20427;-68
2021/12/21 01:18:32;;;;;;;151.65;51.97;;;;;;;;;;4978440;28;20030;-68
2021/12/21 01:21:14;;;;;;;140.23;48.17;;;;;;;;;;4978582;28;20122;-68
2021/12/21 01:40:02;;;;;;;122.80;44.85;;;;;;;;;;4939421;29;20539;-67
2021/12/21 01:50:29;;;;;;;121.15;47.80;;;;;;;;;;4905567;29;20088;-68
2021/12/21 01:52:57;;;;;;;57.33;24.98;;;;;;;;;;4901178;29;20056;-67
2021/12/21 01:55:24;;;;;;;44.45;21.30;;;;;;;;;;4900823;29;20052;-67
2021/12/21 01:57:52;;;;;;;102.85;40.33;;;;;;;;;;4901006;29;20041;-67
2021/12/21 02:00:20;;;;;;;101.40;40.78;;;;;;;;;;4898834;29;20425;-68
2021/12/21 02:02:48;;;;;;;84.18;34.28;;;;;;;;;;4900773;29;20089;-68
2021/12/21 02:05:16;;;;;;;79.05;31.15;;;;;;;;;;4899947;29;20323;-67
2021/12/21 02:07:43;;;;;;;71.32;33.88;;;;;;;;;;4900937;29;20047;-68
2021/12/21 02:10:10;;;;;;;74.07;32.40;;;;;;;;;;4900881;29;20039;-68
2021/12/21 02:12:38;;;;;;;61.03;23.40;;;;;;;;;;4959776;28;20444;-67
2021/12/21 02:15:06;;;;;;;45.17;16.33;;;;;;;;;;4960052;28;20042;-67
2021/12/21 02:18:08;;;;;;;50.80;18.30;;;;;;;;;;4959055;28;20386;-67
2021/12/21 02:23:23;;;;;;;33.22;12.20;;;;;;;;;;4959802;28;20487;-67
2021/12/21 02:28:46;;;;;;;39.42;18.48;;;;;;;;;;4959468;28;20054;-68
2021/12/21 02:31:16;;;;;;;50.10;20.35;;;;;;;;;;4958644;28;20032;-67
2021/12/21 02:33:47;;;;;;;49.42;19.58;;;;;;;;;;4958353;28;20054;-67
2021/12/21 02:36:14;;;;;;;68.53;25.45;;;;;;;;;;4959535;28;20027;-68
2021/12/21 02:38:42;;;;;;;78.85;36.10;;;;;;;;;;4959387;28;20324;-68
2021/12/21 02:41:10;;;;;;;91.57;45.28;;;;;;;;;;4959231;28;20027;-68
2021/12/21 02:43:38;;;;;;;116.47;61.17;;;;;;;;;;4959496;28;20488;-68
2021/12/21 02:46:09;;;;;;;82.40;41.15;;;;;;;;;;4958083;28;20094;-68
2021/12/21 02:48:46;;;;;;;76.90;31.38;;;;;;;;;;4959334;28;20034;-68
2021/12/21 02:51:13;;;;;;;60.50;21.48;;;;;;;;;;4959160;28;20111;-67
2021/12/21 02:53:41;;;;;;;64.95;26.13;;;;;;;;;;4959155;28;20432;-68
2021/12/21 02:56:08;;;;;;;57.80;25.55;;;;;;;;;;4958030;28;20402;-68
2021/12/21 02:58:36;;;;;;;64.80;23.40;;;;;;;;;;4957965;28;20058;-68
2021/12/21 03:01:05;;;;;;;66.50;24.63;;;;;;;;;;4957821;28;20023;-68
2021/12/21 03:03:33;;;;;;;72.55;24.42;;;;;;;;;;4957870;28;20030;-67
2021/12/21 03:06:09;;;;;;;68.05;26.50;;;;;;;;;;4957964;28;20102;-67
2021/12/21 03:08:40;;;;;;;71.00;23.63;;;;;;;;;;4957939;28;20051;-67
2021/12/21 03:11:16;;;;;;;63.83;23.00;;;;;;;;;;4957797;28;20031;-69
2021/12/21 03:16:21;;;;;;;68.13;30.63;;;;;;;;;;4958798;28;20031;-68
2021/12/21 03:18:48;;;;;;;81.22;32.33;;;;;;;;;;4958530;28;20031;-68
2021/12/21 03:21:16;;;;;;;68.28;30.95;;;;;;;;;;4957728;28;20032;-69
2021/12/21 03:23:47;;;;;;;75.30;26.63;;;;;;;;;;4958540;28;20102;-68
2021/12/21 03:26:15;;;;;;;67.05;26.63;;;;;;;;;;4958415;28;20313;-68
2021/12/21 03:28:42;;;;;;;103.32;41.63;;;;;;;;;;4958664;28;20047;-69
2021/12/21 03:31:10;;;;;;;112.53;44.88;;;;;;;;;;4957182;28;20397;-70
2021/12/21 03:33:37;;;;;;;90.65;38.60;;;;;;;;;;4957327;28;20031;-70
2021/12/21 03:36:05;;;;;;;98.95;39.40;;;;;;;;;;4958508;28;20102;-70
2021/12/21 03:38:35;;;;;;;123.70;49.70;;;;;;;;;;4958211;28;20028;-70
2021/12/21 03:41:07;;;;;;;115.82;48.33;;;;;;;;;;4958155;28;20031;-69
2021/12/21 03:43:35;;;;;;;156.35;62.22;;;;;;;;;;4958066;28;20075;-70
2021/12/21 03:46:11;;;;;;;268.63;127.53;;;;;;;;;;4957054;28;20053;-70
2021/12/21 03:48:43;;;;;;;164.60;71.13;;;;;;;;;;4958792;28;20634;-70
2021/12/21 03:51:10;;;;;;;132.68;54.65;;;;;;;;;;4958357;28;20023;-69
2021/12/21 03:53:38;;;;;;;80.38;32.05;;;;;;;;;;4958356;28;20027;-69
2021/12/21 03:58:52;;;;;;;59.17;26.05;;;;;;;;;;4958233;29;20038;-70
2021/12/21 04:01:20;;;;;;;54.90;22.88;;;;;;;;;;4958371;28;20066;-70
2021/12/21 04:03:47;;;;;;;46.45;20.98;;;;;;;;;;4957604;28;20026;-70
2021/12/21 04:06:15;;;;;;;47.35;20.08;;;;;;;;;;4958177;28;20058;-69
2021/12/21 04:08:44;;;;;;;41.00;19.20;;;;;;;;;;4958555;28;20074;-69
2021/12/21 04:11:12;;;;;;;46.00;19.58;;;;;;;;;;4958076;28;20023;-69
2021/12/21 04:13:39;;;;;;;50.80;19.83;;;;;;;;;;4963352;28;20037;-69
2021/12/21 04:16:07;;;;;;;52.20;22.50;;;;;;;;;;4985320;28;20322;-69
2021/12/21 04:18:37;;;;;;;57.60;22.58;;;;;;;;;;4995315;28;20362;-69
2021/12/21 04:21:05;;;;;;;50.38;19.00;;;;;;;;;;4998852;28;20029;-69
2021/12/21 04:23:32;;;;;;;42.47;18.40;;;;;;;;;;4997207;28;20042;-70
2021/12/21 04:26:00;;;;;;;42.47;17.65;;;;;;;;;;4993543;28;20042;-69
2021/12/21 04:28:27;;;;;;;50.78;18.23;;;;;;;;;;4994831;28;20094;-71
2021/12/21 04:30:55;;;;;;;38.15;16.30;;;;;;;;;;4994624;28;20041;-68
2021/12/21 04:33:22;;;;;;;29.83;13.13;;;;;;;;;;4994972;28;20089;-68
2021/12/21 04:35:50;;;;;;;32.42;12.95;;;;;;;;;;4997240;28;20034;-69
2021/12/21 04:38:26;;;;;;;35.97;11.88;;;;;;;;;;4997204;28;20038;-69
2021/12/21 04:41:10;;;;;;;31.73;13.68;;;;;;;;;;5000667;28;20093;-69
2021/12/21 04:43:37;;;;;;;29.77;12.48;;;;;;;;;;4998588;28;20033;-68
2021/12/21 04:46:05;;;;;;;29.35;11.52;;;;;;;;;;4983345;28;20087;-70
2021/12/21 04:48:33;;;;;;;19.73;8.57;;;;;;;;;;4977211;28;20028;-69
2021/12/21 04:51:01;;;;;;;18.65;7.88;;;;;;;;;;4979796;28;20045;-68
2021/12/21 04:53:29;;;;;;;24.40;7.65;;;;;;;;;;4979728;28;20027;-67
2021/12/21 04:55:56;;;;;;;25.77;6.82;;;;;;;;;;4975697;28;20463;-68
2021/12/21 04:58:24;;;;;;;16.98;6.20;;;;;;;;;;4977764;28;20371;-67
2021/12/21 05:00:52;;;;;;;20.00;6.40;;;;;;;;;;4968240;28;20031;-68
2021/12/21 05:03:20;;;;;;;29.27;10.68;;;;;;;;;;4964196;28;20050;-68
2021/12/21 05:05:47;;;;;;;23.60;7.22;;;;;;;;;;4964489;28;20027;-68
2021/12/21 05:08:22;;;;;;;24.42;7.28;;;;;;;;;;4966257;28;20491;-67
2021/12/21 05:10:53;;;;;;;17.02;6.15;;;;;;;;;;4967029;28;20093;-68
2021/12/21 05:13:26;;;;;;;25.23;10.70;;;;;;;;;;4966635;28;20058;-71
2021/12/21 05:16:05;;;;;;;25.52;11.93;;;;;;;;;;4964837;28;20415;-68
2021/12/21 05:18:34;;;;;;;43.08;20.83;;;;;;;;;;4964776;28;20085;-68
2021/12/21 05:21:01;;;;;;;26.73;13.23;;;;;;;;;;4968817;28;20040;-66
2021/12/21 05:23:29;;;;;;;13.77;5.15;;;;;;;;;;4964342;28;20127;-67
2021/12/21 05:25:57;;;;;;;11.82;3.63;;;;;;;;;;4963556;28;20031;-68
2021/12/21 05:28:25;;;;;;;10.02;2.80;;;;;;;;;;4968591;28;20423;-67
2021/12/21 05:30:52;;;;;;;9.70;3.63;;;;;;;;;;4967893;28;20043;-68
2021/12/21 05:33:20;;;;;;;23.52;8.38;;;;;;;;;;4964528;28;20035;-68
2021/12/21 05:35:48;;;;;;;22.95;8.30;;;;;;;;;;4963855;28;20033;-70
2021/12/21 05:38:23;;;;;;;27.13;9.68;;;;;;;;;;4958690;28;20086;-70
2021/12/21 05:40:51;;;;;;;27.60;8.30;;;;;;;;;;4970487;28;20033;-70
2021/12/21 05:43:18;;;;;;;30.60;10.90;;;;;;;;;;4990020;28;20113;-71
2021/12/21 05:45:47;;;;;;;25.00;9.40;;;;;;;;;;4983940;28;20053;-70
2021/12/21 05:48:14;;;;;;;25.52;11.75;;;;;;;;;;4971950;28;20023;-70
2021/12/21 05:50:41;;;;;;;23.88;9.07;;;;;;;;;;4970055;28;20416;-69
2021/12/21 05:53:09;;;;;;;20.55;8.65;;;;;;;;;;4970273;28;20039;-70
2021/12/21 05:55:37;;;;;;;27.00;10.30;;;;;;;;;;4968809;28;20153;-69
2021/12/21 05:58:04;;;;;;;24.90;8.50;;;;;;;;;;4975984;28;20046;-73
2021/12/21 06:00:33;;;;;;;19.55;8.88;;;;;;;;;;4973548;28;20015;-69
2021/12/21 06:03:01;;;;;;;22.33;10.05;;;;;;;;;;4966914;28;20024;-68
2021/12/21 06:05:29;;;;;;;22.95;7.60;;;;;;;;;;4969416;28;20542;-69
2021/12/21 06:07:56;;;;;;;28.05;7.93;;;;;;;;;;4969089;28;20034;-69
2021/12/21 06:10:33;;;;;;;24.98;9.52;;;;;;;;;;4967709;28;20081;-70
2021/12/21 06:27:09;;;;;;;20.50;9.00;;;;;;;;;;4976530;28;20034;-69
2021/12/21 06:29:37;;;;;;;20.17;8.80;;;;;;;;;;4960646;28;20035;-70
2021/12/21 06:32:05;;;;;;;18.42;9.75;;;;;;;;;;4960600;28;20042;-71
2021/12/21 06:34:33;;;;;;;19.15;7.40;;;;;;;;;;4960200;28;20356;-67
2021/12/21 06:37:00;;;;;;;18.60;7.35;;;;;;;;;;4960155;28;20027;-69
2021/12/21 06:39:28;;;;;;;18.73;7.90;;;;;;;;;;4976076;28;20089;-68
2021/12/21 06:41:56;;;;;;;22.20;11.20;;;;;;;;;;4976330;28;20038;-69
2021/12/21 06:44:24;;;;;;;17.33;5.93;;;;;;;;;;4976010;28;20035;-68
2021/12/21 06:51:07;;;;;;;12.40;4.00;;;;;;;;;;4959490;28;20027;-68
2021/12/21 06:52:28;;;;;;;10.82;3.92;;;;;;;;;;4940441;28;20447;-67
2021/12/21 06:54:56;;;;;;;9.27;3.33;;;;;;;;;;4937324;29;20458;-67
2021/12/21 06:57:23;;;;;;;10.32;3.47;;;;;;;;;;4937267;29;20424;-69
2021/12/21 06:59:51;;;;;;;7.80;3.25;;;;;;;;;;4937057;29;20032;-68
2021/12/21 07:02:18;;;;;;;8.77;4.05;;;;;;;;;;4977695;28;20069;-70
2021/12/21 07:04:46;;;;;;;12.07;4.88;;;;;;;;;;4976774;28;20061;-69
2021/12/21 07:07:17;;;;;;;11.45;4.22;;;;;;;;;;4979994;28;20356;-69
2021/12/21 07:09:48;;;;;;;14.50;6.03;;;;;;;;;;4980757;28;20023;-68
2021/12/21 07:20:26;;;;;;;21.67;6.53;;;;;;;;;;4977727;28;20097;-69
2021/12/21 07:22:53;;;;;;;20.02;7.82;;;;;;;;;;4978005;28;20049;-70
2021/12/21 07:25:20;;;;;;;20.63;7.03;;;;;;;;;;4977610;28;20027;-68
2021/12/21 07:27:48;;;;;;;17.63;5.72;;;;;;;;;;4976419;28;20097;-68
2021/12/21 07:30:15;;;;;;;25.42;6.65;;;;;;;;;;4976039;28;20039;-69
2021/12/21 07:32:43;;;;;;;21.88;8.50;;;;;;;;;;4977113;28;20110;-68
2021/12/21 07:35:11;;;;;;;18.45;6.13;;;;;;;;;;4974287;28;20019;-69
2021/12/21 07:37:39;;;;;;;12.80;4.22;;;;;;;;;;4976396;28;20085;-68
2021/12/21 07:40:07;;;;;;;14.10;4.40;;;;;;;;;;4969177;28;20030;-68
2021/12/21 07:42:35;;;;;;;12.60;3.33;;;;;;;;;;4970325;28;20499;-66
2021/12/21 07:45:02;;;;;;;11.65;3.35;;;;;;;;;;4966155;28;20037;-66
2021/12/21 07:47:30;;;;;;;11.93;3.78;;;;;;;;;;4974036;28;20027;-66
2021/12/21 07:49:58;;;;;;;11.60;4.53;;;;;;;;;;4976605;28;20105;-69
2021/12/21 07:52:26;;;;;;;11.82;4.03;;;;;;;;;;4976598;28;20054;-69
2021/12/21 07:54:53;;;;;;;11.25;3.92;;;;;;;;;;4976008;28;20027;-68
2021/12/21 07:57:21;;;;;;;13.90;7.05;;;;;;;;;;4975396;28;20023;-70
2021/12/21 07:59:52;;;;;;;12.77;4.68;;;;;;;;;;4974445;28;20023;-69
2021/12/21 08:02:19;;;;;;;10.73;3.78;;;;;;;;;;4961036;28;20076;-69
2021/12/21 08:04:47;;;;;;;16.88;3.00;;;;;;;;;;4955906;28;20161;-71
2021/12/21 08:07:19;;;;;;;14.90;2.50;;;;;;;;;;4961272;28;20027;-72
2021/12/21 08:09:51;;;;;;;9.23;2.05;;;;;;;;;;4956463;28;20031;-68
2021/12/21 08:12:19;;;;;;;11.82;2.53;;;;;;;;;;4956808;28;20070;-69
2021/12/21 08:14:48;;;;;;;8.90;3.20;;;;;;;;;;4957198;28;20027;-69
2021/12/21 08:17:16;;;;;;;11.63;2.40;;;;;;;;;;4956789;28;20030;-71
2021/12/21 08:19:45;;;;;;;11.25;3.85;;;;;;;;;;4955913;28;20062;-70
2021/12/21 08:22:12;;;;;;;15.30;3.30;;;;;;;;;;4956849;28;20432;-69
2021/12/21 08:24:40;;;;;;;11.52;2.70;;;;;;;;;;4957334;28;20039;-70
2021/12/21 08:27:07;;;;;;;11.25;2.50;;;;;;;;;;4955708;28;20539;-69
2021/12/21 08:29:35;;;;;;;7.05;2.00;;;;;;;;;;4956879;28;20098;-69
2021/12/21 08:32:02;;;;;;;10.60;2.72;;;;;;;;;;4962216;28;20034;-69
2021/12/21 08:34:30;;;;;;;7.63;2.30;;;;;;;;;;4975043;28;20416;-69
2021/12/21 08:36:57;;;;;;;9.77;1.95;;;;;;;;;;4975912;28;20324;-69
2021/12/21 08:39:26;;;;;;;7.70;2.22;;;;;;;;;;4975888;28;20110;-71
2021/12/21 08:41:59;;;;;;;9.35;2.45;;;;;;;;;;4976101;28;20015;-69
2021/12/21 08:44:27;;;;;;;11.30;3.22;;;;;;;;;;4977732;28;20015;-71
2021/12/21 08:46:57;;;;;;;9.77;3.15;;;;;;;;;;4977149;28;20046;-67
2021/12/21 08:49:25;;;;;;;20.40;3.75;;;;;;;;;;4970802;28;20031;-70
2021/12/21 08:51:53;;;;;;;7.50;3.00;;;;;;;;;;4970073;28;20483;-70
2021/12/21 08:54:20;;;;;;;14.68;5.95;;;;;;;;;;4958299;28;20420;-70
2021/12/21 08:56:48;;;;;;;24.05;10.02;;;;;;;;;;4979675;28;20052;-71
2021/12/21 08:59:17;;;;;;;16.95;5.72;;;;;;;;;;4985307;28;20102;-69
2021/12/21 09:01:47;;;;;;;13.70;4.03;;;;;;;;;;4965911;28;20024;-70
2021/12/21 09:04:16;;;;;;;13.23;3.30;;;;;;;;;;4965714;28;20050;-70
2021/12/21 09:06:43;;;;;;;12.05;3.83;;;;;;;;;;4963112;28;20024;-70
2021/12/21 09:09:11;;;;;;;9.55;3.50;;;;;;;;;;4964602;28;20080;-70
2021/12/21 09:11:39;;;;;;;13.50;4.90;;;;;;;;;;4964486;28;20102;-70
2021/12/21 09:14:07;;;;;;;15.07;4.15;;;;;;;;;;4968255;28;20027;-70
2021/12/21 09:16:35;;;;;;;14.65;5.43;;;;;;;;;;4962558;28;20027;-70
2021/12/21 09:19:03;;;;;;;15.73;6.47;;;;;;;;;;4959633;28;20337;-70
2021/12/21 09:21:30;;;;;;;11.73;4.57;;;;;;;;;;4967507;28;20031;-70
2021/12/21 09:24:02;;;;;;;11.95;4.70;;;;;;;;;;4966627;28;20042;-69
2021/12/21 09:26:29;;;;;;;15.25;4.82;;;;;;;;;;4961194;28;20024;-71
2021/12/21 09:29:02;;;;;;;14.57;6.05;;;;;;;;;;4962089;28;20069;-71
2021/12/21 09:31:30;;;;;;;14.05;9.45;;;;;;;;;;4968811;28;20023;-73
2021/12/21 09:33:57;;;;;;;15.82;4.57;;;;;;;;;;4972450;28;20031;-69
2021/12/21 09:36:26;;;;;;;8.43;4.95;;;;;;;;;;4972478;28;20050;-70
2021/12/21 09:38:54;;;;;;;12.60;5.50;;;;;;;;;;4960874;28;20028;-69
2021/12/21 09:41:23;;;;;;;12.55;3.78;;;;;;;;;;4962767;28;20027;-70
2021/12/21 09:43:51;;;;;;;10.82;4.05;;;;;;;;;;4970473;28;20027;-73
2021/12/21 09:46:19;;;;;;;13.25;3.28;;;;;;;;;;4967421;28;20016;-70
2021/12/21 09:48:46;;;;;;;10.75;3.45;;;;;;;;;;4969165;28;20029;-69
2021/12/21 09:51:15;;;;;;;16.80;3.40;;;;;;;;;;4974431;28;20029;-69
2021/12/21 09:53:43;;;;;;;9.38;3.88;;;;;;;;;;4977028;28;20019;-70
2021/12/21 09:56:13;;;;;;;11.82;4.90;;;;;;;;;;4977949;28;20026;-69
2021/12/21 09:58:41;;;;;;;17.35;6.53;;;;;;;;;;4976492;28;20042;-70
2021/12/21 10:01:08;;;;;;;14.50;6.75;;;;;;;;;;4972924;28;20700;-72
2021/12/21 10:03:36;;;;;;;21.35;8.50;;;;;;;;;;4973842;28;20026;-70
2021/12/21 10:06:10;;;;;;;28.67;6.75;;;;;;;;;;4974029;28;20030;-71
2021/12/21 10:08:39;;;;;;;12.60;5.75;;;;;;;;;;4978849;28;20078;-69
2021/12/21 10:11:08;;;;;;;12.23;5.72;;;;;;;;;;4978663;28;20023;-72
2021/12/21 10:13:39;;;;;;;11.75;4.78;;;;;;;;;;4966940;28;20054;-71
2021/12/21 10:16:06;;;;;;;19.33;5.28;;;;;;;;;;4959844;28;20027;-69
2021/12/21 10:18:39;;;;;;;20.33;6.95;;;;;;;;;;4959537;28;20023;-69
2021/12/21 10:21:07;;;;;;;18.95;6.00;;;;;;;;;;4958468;28;20428;-69
2021/12/21 10:23:39;;;;;;;13.20;5.18;;;;;;;;;;4961622;28;20509;-69
2021/12/21 10:26:12;;;;;;;19.30;4.82;;;;;;;;;;4958563;28;20028;-69
2021/12/21 10:28:49;;;;;;;20.65;5.47;;;;;;;;;;4960929;28;20027;-70
2021/12/21 10:31:32;;;;;;;23.02;6.18;;;;;;;;;;4960599;28;20035;-69
2021/12/21 10:34:01;;;;;;;24.02;7.57;;;;;;;;;;4958177;28;20038;-69
2021/12/21 10:36:29;;;;;;;21.27;7.95;;;;;;;;;;4958156;28;20031;-69
2021/12/21 10:39:02;;;;;;;17.77;6.68;;;;;;;;;;4962438;28;20037;-70
2021/12/21 10:41:38;;;;;;;18.27;5.22;;;;;;;;;;4958265;28;20034;-69
2021/12/21 10:44:12;;;;;;;12.60;4.40;;;;;;;;;;4959221;28;20027;-69
2021/12/21 10:46:41;;;;;;;19.83;5.15;;;;;;;;;;4958003;28;20031;-70
2021/12/21 10:49:16;;;;;;;22.15;5.25;;;;;;;;;;4959067;28;20577;-70
2021/12/21 10:51:57;;;;;;;22.85;6.53;;;;;;;;;;4958768;28;20082;-71
2021/12/21 10:54:33;;;;;;;18.95;7.28;;;;;;;;;;4959042;28;20031;-70
2021/12/21 10:57:01;;;;;;;29.88;17.05;;;;;;;;;;4958772;28;20027;-68
2021/12/21 10:59:33;;;;;;;28.55;11.27;;;;;;;;;;4957547;28;20066;-70
2021/12/21 11:02:16;;;;;;;34.08;16.88;;;;;;;;;;4957504;28;20032;-69
2021/12/21 11:04:47;;;;;;;41.25;19.88;;;;;;;;;;4958939;28;20333;-70
2021/12/21 11:10:25;;;;;;;33.00;13.45;;;;;;;;;;4976066;28;20343;-69
2021/12/21 11:12:54;;;;;;;36.20;14.45;;;;;;;;;;4976036;28;20436;-70
2021/12/21 11:15:28;;;;;;;40.55;15.15;;;;;;;;;;4976016;28;20439;-70
2021/12/21 11:17:57;;;;;;;41.53;20.38;;;;;;;;;;4976145;28;20054;-70
2021/12/21 11:20:25;;;;;;;54.88;22.90;;;;;;;;;;4976045;28;20428;-69
2021/12/21 11:22:52;;;;;;;69.20;26.35;;;;;;;;;;4975960;28;20058;-70
2021/12/21 11:25:21;;;;;;;58.05;25.23;;;;;;;;;;4975917;28;20534;-69
2021/12/21 11:27:49;;;;;;;50.95;20.83;;;;;;;;;;4976341;28;20060;-69
2021/12/21 11:30:19;;;;;;;43.20;18.33;;;;;;;;;;4976447;28;20027;-71
2021/12/21 11:32:49;;;;;;;37.60;18.02;;;;;;;;;;4975918;28;20166;-68
2021/12/21 11:37:50;;;;;;;38.85;23.08;;;;;;;;;;4975965;28;20041;-70
2021/12/21 11:40:22;;;;;;;49.22;20.27;;;;;;;;;;4976044;28;20031;-70
2021/12/21 11:42:57;;;;;;;38.70;16.40;;;;;;;;;;4975893;28;20030;-69
2021/12/21 11:45:43;;;;;;;37.20;15.95;;;;;;;;;;4970241;28;20433;-70
2021/12/21 11:48:15;;;;;;;28.08;13.10;;;;;;;;;;4958440;28;20114;-70
2021/12/21 11:50:47;;;;;;;26.92;11.23;;;;;;;;;;4958345;28;20062;-68
2021/12/21 11:53:19;;;;;;;32.55;14.73;;;;;;;;;;4958721;28;20027;-68
2021/12/21 11:55:51;;;;;;;45.70;17.65;;;;;;;;;;4958810;28;20023;-67
2021/12/21 11:58:29;;;;;;;32.45;14.55;;;;;;;;;;4959009;28;20019;-69
2021/12/21 12:01:08;;;;;;;49.25;22.73;;;;;;;;;;4957716;28;20114;-69
2021/12/21 12:03:43;;;;;;;44.17;21.70;;;;;;;;;;4958935;28;20027;-67
2021/12/21 12:06:17;;;;;;;43.35;19.63;;;;;;;;;;4958592;28;20032;-68
2021/12/21 12:08:56;;;;;;;36.72;19.02;;;;;;;;;;4958664;28;20027;-69
2021/12/21 12:11:36;;;;;;;43.20;19.15;;;;;;;;;;4942121;29;20082;-69
2021/12/21 12:14:16;;;;;;;42.55;20.27;;;;;;;;;;4958799;28;20098;-70
2021/12/21 12:16:52;;;;;;;58.80;24.55;;;;;;;;;;4958850;28;20019;-69
2021/12/21 12:19:30;;;;;;;58.92;25.65;;;;;;;;;;4958673;28;20023;-69
2021/12/21 12:21:59;;;;;;;58.70;27.05;;;;;;;;;;4958559;28;20062;-69
2021/12/21 12:24:37;;;;;;;58.10;26.88;;;;;;;;;;4957494;28;20106;-69
2021/12/21 12:27:16;;;;;;;59.90;25.38;;;;;;;;;;4960313;28;20047;-68
2021/12/21 12:29:56;;;;;;;53.60;23.00;;;;;;;;;;4959439;28;20023;-70
2021/12/21 12:32:42;;;;;;;88.70;34.67;;;;;;;;;;4957892;28;20031;-69
2021/12/21 12:35:20;;;;;;;62.50;21.88;;;;;;;;;;4959716;28;20031;-69
2021/12/21 12:38:03;;;;;;;44.53;18.98;;;;;;;;;;4960224;28;20038;-69
2021/12/21 12:40:48;;;;;;;62.75;27.27;;;;;;;;;;4957937;28;20027;-67
2021/12/21 12:43:20;;;;;;;54.92;25.42;;;;;;;;;;4958253;28;20023;-67
2021/12/21 12:46:02;;;;;;;66.15;29.67;;;;;;;;;;4957833;28;20110;-67
2021/12/21 12:48:48;;;;;;;59.88;20.60;;;;;;;;;;4960920;28;20424;-70
2021/12/21 12:51:33;;;;;;;48.70;20.02;;;;;;;;;;4963185;28;20096;-68
2021/12/21 12:54:17;;;;;;;42.15;17.52;;;;;;;;;;4961872;28;20428;-70
2021/12/21 12:56:49;;;;;;;36.60;15.18;;;;;;;;;;4963082;28;20027;-68
2021/12/21 12:59:17;;;;;;;33.67;15.73;;;;;;;;;;4962606;28;20102;-67
2021/12/21 13:01:49;;;;;;;51.63;25.33;;;;;;;;;;4962712;28;20377;-67
2021/12/21 13:04:20;;;;;;;34.85;14.65;;;;;;;;;;4961027;28;20082;-67
2021/12/21 13:06:52;;;;;;;28.20;12.13;;;;;;;;;;4962944;28;20034;-71
2021/12/21 13:09:23;;;;;;;37.20;16.08;;;;;;;;;;4960989;28;20329;-68
2021/12/21 13:11:57;;;;;;;33.47;14.98;;;;;;;;;;4962431;28;20031;-68
2021/12/21 13:14:27;;;;;;;49.78;21.50;;;;;;;;;;4961115;28;20035;-68
2021/12/21 13:16:58;;;;;;;39.97;18.15;;;;;;;;;;4962207;28;20032;-69
2021/12/21 13:19:30;;;;;;;38.70;16.23;;;;;;;;;;4960704;28;20031;-68
2021/12/21 13:21:58;;;;;;;46.45;16.67;;;;;;;;;;4961780;28;20381;-68
2021/12/21 13:24:31;;;;;;;45.80;17.00;;;;;;;;;;4961895;28;20316;-70
2021/12/21 13:27:09;;;;;;;48.00;20.50;;;;;;;;;;4962155;28;20098;-67
2021/12/21 13:29:42;;;;;;;50.15;19.02;;;;;;;;;;4961861;28;20420;-68
2021/12/21 13:32:15;;;;;;;50.70;14.98;;;;;;;;;;4961618;28;20396;-68
2021/12/21 13:34:47;;;;;;;33.90;15.52;;;;;;;;;;4960596;28;20054;-67
2021/12/21 13:37:21;;;;;;;30.23;13.73;;;;;;;;;;4961953;28;20432;-68
2021/12/21 13:39:56;;;;;;;45.97;14.82;;;;;;;;;;4960404;28;20034;-68
2021/12/21 13:42:28;;;;;;;35.50;11.88;;;;;;;;;;4961617;28;20027;-68
2021/12/21 13:45:02;;;;;;;28.35;9.35;;;;;;;;;;4960744;28;20023;-69
2021/12/21 13:47:43;;;;;;;21.42;8.05;;;;;;;;;;4961521;28;20027;-70
2021/12/21 13:50:23;;;;;;;20.58;7.60;;;;;;;;;;4961631;28;20019;-69
2021/12/21 13:53:00;;;;;;;31.42;7.75;;;;;;;;;;4961643;28;20413;-71
2021/12/21 13:55:41;;;;;;;21.25;8.35;;;;;;;;;;4960298;28;20023;-69
2021/12/21 13:58:12;;;;;;;21.98;7.25;;;;;;;;;;4961486;28;20074;-68
2021/12/21 14:00:44;;;;;;;20.50;6.15;;;;;;;;;;4960178;28;20021;-68
2021/12/21 14:03:26;;;;;;;25.00;5.80;;;;;;;;;;4959997;28;20023;-69
2021/12/21 14:06:08;;;;;;;24.05;6.15;;;;;;;;;;4961195;28;20042;-67
2021/12/21 14:08:39;;;;;;;28.90;7.28;;;;;;;;;;4959924;28;20035;-68
2021/12/21 14:11:12;;;;;;;19.23;7.15;;;;;;;;;;4961283;28;20036;-68
2021/12/21 14:13:43;;;;;;;31.67;7.88;;;;;;;;;;4961260;28;20031;-68
2021/12/21 14:16:17;;;;;;;34.40;10.48;;;;;;;;;;4961198;28;20046;-66
2021/12/21 14:18:51;;;;;;;34.45;9.43;;;;;;;;;;4961037;28;20074;-69
2021/12/21 14:21:28;;;;;;;36.33;13.70;;;;;;;;;;4959582;28;20023;-70
2021/12/21 14:24:01;;;;;;;54.15;11.77;;;;;;;;;;4960824;28;20043;-68
2021/12/21 14:26:36;;;;;;;42.33;15.43;;;;;;;;;;4959574;28;20035;-68
2021/12/21 14:29:10;;;;;;;46.10;14.43;;;;;;;;;;4960862;28;20023;-67
2021/12/21 14:32:17;;;;;;;69.28;17.15;;;;;;;;;;4960757;28;20031;-68
2021/12/21 14:34:53;;;;;;;35.92;11.90;;;;;;;;;;4959524;28;20126;-66
2021/12/21 14:37:24;;;;;;;37.65;10.90;;;;;;;;;;4960696;28;20103;-68
2021/12/21 14:39:58;;;;;;;30.90;8.88;;;;;;;;;;4960545;28;20051;-67
2021/12/21 14:42:32;;;;;;;27.00;8.55;;;;;;;;;;4960498;28;20023;-67
2021/12/21 14:45:04;;;;;;;32.33;7.68;;;;;;;;;;4960773;28;20373;-69
2021/12/21 14:47:35;;;;;;;54.58;11.18;;;;;;;;;;4959291;28;20042;-68
2021/12/21 14:50:09;;;;;;;24.00;8.70;;;;;;;;;;4960286;28;20034;-71
2021/12/21 14:52:51;;;;;;;43.47;15.18;;;;;;;;;;4960564;28;20337;-68
2021/12/21 14:55:27;;;;;;;30.00;6.90;;;;;;;;;;4960147;28;20023;-68
2021/12/21 14:57:59;;;;;;;27.23;9.00;;;;;;;;;;4958959;28;20420;-66
2021/12/21 15:00:41;;;;;;;23.25;7.05;;;;;;;;;;4960415;28;20432;-67
2021/12/21 15:03:13;;;;;;;29.38;8.40;;;;;;;;;;4960323;28;20042;-70
2021/12/21 15:05:44;;;;;;;32.63;7.75;;;;;;;;;;4958709;28;20027;-68
2021/12/21 15:08:20;;;;;;;30.95;7.97;;;;;;;;;;4959860;28;20046;-70
2021/12/21 15:10:52;;;;;;;21.05;6.47;;;;;;;;;;4958571;28;20038;-67
2021/12/21 15:13:22;;;;;;;23.48;6.25;;;;;;;;;;4958411;28;20106;-67
2021/12/21 15:15:53;;;;;;;35.20;5.68;;;;;;;;;;4958527;28;20032;-66
2021/12/21 15:18:24;;;;;;;20.17;5.30;;;;;;;;;;4959929;28;20106;-68
2021/12/21 15:20:54;;;;;;;58.70;6.63;;;;;;;;;;4959640;28;20038;-68
2021/12/21 15:23:21;;;;;;;19.92;5.03;;;;;;;;;;4958440;28;20131;-68
2021/12/21 15:25:50;;;;;;;13.35;3.72;;;;;;;;;;4958632;28;20019;-68
2021/12/21 15:28:21;;;;;;;20.05;4.40;;;;;;;;;;4958557;28;20078;-69
2021/12/21 15:30:52;;;;;;;10.55;3.88;;;;;;;;;;4958535;28;20027;-69
2021/12/21 15:33:23;;;;;;;17.50;4.20;;;;;;;;;;4960615;28;20023;-68
2021/12/21 15:35:54;;;;;;;19.83;4.68;;;;;;;;;;4959634;28;20102;-69
2021/12/21 15:38:24;;;;;;;15.73;4.35;;;;;;;;;;4959681;28;20103;-67
2021/12/21 15:40:54;;;;;;;17.65;5.18;;;;;;;;;;4959611;28;20440;-70
2021/12/21 15:43:31;;;;;;;13.93;3.90;;;;;;;;;;4958316;28;20031;-69
2021/12/21 15:46:02;;;;;;;16.33;3.78;;;;;;;;;;4958278;28;20023;-71
2021/12/21 15:48:33;;;;;;;32.92;4.78;;;;;;;;;;4959563;28;20054;-69
2021/12/21 15:51:04;;;;;;;17.48;5.05;;;;;;;;;;4958181;28;20038;-69
2021/12/21 15:53:34;;;;;;;16.92;4.95;;;;;;;;;;4959454;28;20027;-68
2021/12/21 15:56:05;;;;;;;20.35;6.10;;;;;;;;;;4958357;28;20055;-70
2021/12/21 15:58:35;;;;;;;15.38;4.63;;;;;;;;;;4959263;28;20528;-72
2021/12/21 16:01:06;;;;;;;37.38;10.90;;;;;;;;;;4959348;28;20019;-71
2021/12/21 16:03:40;;;;;;;27.75;10.40;;;;;;;;;;4957768;28;20024;-72